Tropical Cyclones
[Index]
Main Index Home Page Stock Weather Photos Extreme Storms Discussion Storm News and Storm Chasing Reports Tropical Cyclones / Hurricanes / Typhoons Weather Data and Links Wild Fires / Bushfires Weather Observation Techniques Weather Picture Catalogue Tornado Pictures and Reports Stock Video Footage and DVDs for sale
Season 1971-1972 Tropical Cyclone URSULA Track Map
Season 1971-1972 Summaries: [BoM-AU] [JTWC-AU] [JTWC-SIO] [JTWC-SPAC] [JTWC-SH]
<<- Previous TC | JTWC 1971-1972 Season | Next TC ->>

click for intensity scale information  Lat/long Grid: Show Hide

 Date Labels: Show Hide

Joint Typhoon Warning Centre Cyclone Data

Name: URSULA
Number: 776 / 7205

02 Dec 1971 00:00 UTC to 16 Dec 1971 00:00 UTC

    date/time    lat    long     hPa   cat  kts
1971-12-02 00    6.9   169.8                              
1971-12-02 06    7.4   168.9                              
1971-12-02 12    7.8   168.1                              
1971-12-02 18    8.0   167.5                              
1971-12-03 00    8.2   167.1                              
1971-12-03 06    8.3   166.9                              
1971-12-03 12    8.5   166.6                              
1971-12-03 18    8.6   166.3                              
1971-12-04 00    8.8   166.0                              
1971-12-04 06    8.9   165.7                              
1971-12-04 12    9.0   165.5                              
1971-12-04 18    9.0   165.2                              
1971-12-05 00    9.1   164.9                              
1971-12-05 06    9.3   164.7                              
1971-12-05 12    9.5   164.5                              
1971-12-05 18    9.6   164.3                              
1971-12-06 00    9.7   164.0                              
1971-12-06 06   10.0   163.5                              
1971-12-06 12   10.6   162.9                              
1971-12-06 18   11.4   162.5                              
1971-12-07 00   12.2   162.3                              
1971-12-07 06   13.1   162.6                              
1971-12-07 12   14.0   163.3                              
1971-12-07 18   14.7   164.2                              
1971-12-08 00   15.3   165.1                              
1971-12-08 06   15.8   166.0                              
1971-12-08 12   16.2   166.9                              
1971-12-08 18   16.6   168.0                              
1971-12-09 00   17.0   169.3                              
1971-12-09 06   17.5   170.6                              
1971-12-09 12   18.1   171.8                              
1971-12-09 18   18.6   172.8                              
1971-12-10 00   19.1   173.5                              
1971-12-10 06   19.5   174.2                              
1971-12-10 12   19.9   174.9                              
1971-12-10 18   20.4   175.6                              
1971-12-11 00   21.2   176.2                              
1971-12-11 06   22.2   176.7                              
1971-12-11 12   23.2   176.9                              
1971-12-11 18   24.2   176.6                              
1971-12-12 00   25.1   176.3                              
1971-12-12 06   25.9   176.1                              
1971-12-12 12   26.7   175.9                              
1971-12-12 18   27.4   175.4                              
1971-12-13 00   27.9   174.6                              
1971-12-13 06   27.9   173.4                              
1971-12-13 12   27.9   172.2                              
1971-12-13 18   28.0   171.5                              
1971-12-14 00   28.2   170.9                              
1971-12-14 06   28.7   170.5                              
1971-12-14 12   29.2   170.1                              
1971-12-14 18   29.7   169.6                              
1971-12-15 00   30.1   169.1                              
1971-12-15 06   30.3   168.8                              
1971-12-15 12   30.5   168.5                              
1971-12-15 18   30.7   168.2                              
1971-12-16 00   31.0   168.0                              
Winds are 1-min average.

Tropical cyclone tracks developed by Michael Bath using data from the Joint Typhoon Warning Centre Best Tracks and Google Maps.


[Australian Severe Weather index] [Copyright Notice] [Email Contacts] [Search This Site] [Privacy Policy]
Document: tropical_cyclone_ursula.htm Updated: 18 September 2016